sensor_id;sensor_type;location;lat;lon;timestamp;temperature;humidity
46400;DHT22;32104;50.838;4.388;2022-09-09T00:02:01;16.70;99.90
46400;DHT22;32104;50.838;4.388;2022-09-09T00:04:32;16.70;99.90
46400;DHT22;32104;50.838;4.388;2022-09-09T00:12:41;16.60;99.90
46400;DHT22;32104;50.838;4.388;2022-09-09T00:15:25;16.70;99.90
46400;DHT22;32104;50.838;4.388;2022-09-09T00:18:13;16.70;99.90
46400;DHT22;32104;50.838;4.388;2022-09-09T00:21:06;16.80;99.90
46400;DHT22;32104;50.838;4.388;2022-09-09T00:23:39;17.10;99.90
46400;DHT22;32104;50.838;4.388;2022-09-09T00:28:55;17.10;99.90
46400;DHT22;32104;50.838;4.388;2022-09-09T00:31:28;17.10;99.90
46400;DHT22;32104;50.838;4.388;2022-09-09T00:33:58;17.20;99.90
46400;DHT22;32104;50.838;4.388;2022-09-09T00:36:27;17.10;99.90
46400;DHT22;32104;50.838;4.388;2022-09-09T00:39:00;17.00;99.90
46400;DHT22;32104;50.838;4.388;2022-09-09T00:44:31;17.10;99.90
46400;DHT22;32104;50.838;4.388;2022-09-09T00:58:25;16.90;99.90
46400;DHT22;32104;50.838;4.388;2022-09-09T01:00:59;16.90;99.90
46400;DHT22;32104;50.838;4.388;2022-09-09T01:03:40;16.90;99.90
46400;DHT22;32104;50.838;4.388;2022-09-09T01:06:30;16.70;99.90
46400;DHT22;32104;50.838;4.388;2022-09-09T01:09:27;16.60;99.90
46400;DHT22;32104;50.838;4.388;2022-09-09T01:14:47;16.80;99.90
46400;DHT22;32104;50.838;4.388;2022-09-09T01:17:33;16.90;99.90
46400;DHT22;32104;50.838;4.388;2022-09-09T01:28:18;16.70;99.90
46400;DHT22;32104;50.838;4.388;2022-09-09T01:30:46;16.80;99.90
46400;DHT22;32104;50.838;4.388;2022-09-09T01:33:17;16.80;99.90
46400;DHT22;32104;50.838;4.388;2022-09-09T01:36:06;16.70;99.90
46400;DHT22;32104;50.838;4.388;2022-09-09T01:38:34;16.60;99.90
46400;DHT22;32104;50.838;4.388;2022-09-09T01:41:04;16.60;99.90
46400;DHT22;32104;50.838;4.388;2022-09-09T01:43:33;16.70;99.90
46400;DHT22;32104;50.838;4.388;2022-09-09T01:46:01;16.60;99.90
46400;DHT22;32104;50.838;4.388;2022-09-09T01:48:28;16.60;99.90
46400;DHT22;32104;50.838;4.388;2022-09-09T01:50:54;16.70;99.90
46400;DHT22;32104;50.838;4.388;2022-09-09T01:53:21;16.60;99.90
46400;DHT22;32104;50.838;4.388;2022-09-09T01:56:05;16.50;99.90
46400;DHT22;32104;50.838;4.388;2022-09-09T02:01:23;16.60;99.90
46400;DHT22;32104;50.838;4.388;2022-09-09T02:03:56;16.60;99.90
46400;DHT22;32104;50.838;4.388;2022-09-09T02:06:38;16.60;99.90
46400;DHT22;32104;50.838;4.388;2022-09-09T02:09:07;16.70;99.90
46400;DHT22;32104;50.838;4.388;2022-09-09T02:11:36;16.60;99.90
46400;DHT22;32104;50.838;4.388;2022-09-09T02:17:03;16.50;99.90
46400;DHT22;32104;50.838;4.388;2022-09-09T02:19:45;16.40;99.90
46400;DHT22;32104;50.838;4.388;2022-09-09T02:22:16;16.50;99.90
46400;DHT22;32104;50.838;4.388;2022-09-09T02:24:43;16.50;99.90
46400;DHT22;32104;50.838;4.388;2022-09-09T02:27:10;16.60;99.90
46400;DHT22;32104;50.838;4.388;2022-09-09T02:29:39;16.70;99.90
46400;DHT22;32104;50.838;4.388;2022-09-09T02:32:09;16.70;99.90
46400;DHT22;32104;50.838;4.388;2022-09-09T02:34:44;16.60;99.90
46400;DHT22;32104;50.838;4.388;2022-09-09T02:37:11;16.60;99.90
46400;DHT22;32104;50.838;4.388;2022-09-09T02:39:37;16.70;99.90
46400;DHT22;32104;50.838;4.388;2022-09-09T02:42:06;16.60;99.90
46400;DHT22;32104;50.838;4.388;2022-09-09T02:44:33;16.60;99.90
46400;DHT22;32104;50.838;4.388;2022-09-09T02:47:16;16.60;99.90
46400;DHT22;32104;50.838;4.388;2022-09-09T02:55:37;16.60;99.90
46400;DHT22;32104;50.838;4.388;2022-09-09T02:58:06;16.50;99.90
46400;DHT22;32104;50.838;4.388;2022-09-09T03:00:33;16.50;99.90
46400;DHT22;32104;50.838;4.388;2022-09-09T03:03:05;16.50;99.90
46400;DHT22;32104;50.838;4.388;2022-09-09T03:05:31;16.50;99.90
46400;DHT22;32104;50.838;4.388;2022-09-09T03:07:59;16.50;99.90
46400;DHT22;32104;50.838;4.388;2022-09-09T03:10:24;16.60;99.90
46400;DHT22;32104;50.838;4.388;2022-09-09T03:12:50;16.60;99.90
46400;DHT22;32104;50.838;4.388;2022-09-09T03:15:16;16.60;99.90
46400;DHT22;32104;50.838;4.388;2022-09-09T03:17:42;16.60;99.90
46400;DHT22;32104;50.838;4.388;2022-09-09T03:20:25;16.50;99.90
46400;DHT22;32104;50.838;4.388;2022-09-09T03:22:54;16.40;99.90
46400;DHT22;32104;50.838;4.388;2022-09-09T03:25:20;16.50;99.90
46400;DHT22;32104;50.838;4.388;2022-09-09T03:27:49;16.50;99.90
46400;DHT22;32104;50.838;4.388;2022-09-09T03:30:15;16.50;99.90
46400;DHT22;32104;50.838;4.388;2022-09-09T03:32:41;16.50;99.90
46400;DHT22;32104;50.838;4.388;2022-09-09T03:35:07;16.50;99.90
46400;DHT22;32104;50.838;4.388;2022-09-09T03:37:33;16.50;99.90
46400;DHT22;32104;50.838;4.388;2022-09-09T03:39:59;16.30;99.90
46400;DHT22;32104;50.838;4.388;2022-09-09T03:42:25;16.30;99.90
46400;DHT22;32104;50.838;4.388;2022-09-09T03:44:51;16.30;99.90
46400;DHT22;32104;50.838;4.388;2022-09-09T03:47:18;16.40;99.90
46400;DHT22;32104;50.838;4.388;2022-09-09T03:49:45;16.40;99.90
46400;DHT22;32104;50.838;4.388;2022-09-09T03:52:11;16.30;99.90
46400;DHT22;32104;50.838;4.388;2022-09-09T03:54:37;16.30;99.90
46400;DHT22;32104;50.838;4.388;2022-09-09T03:57:03;16.20;99.90
46400;DHT22;32104;50.838;4.388;2022-09-09T03:59:30;16.30;99.90
46400;DHT22;32104;50.838;4.388;2022-09-09T04:01:56;16.30;99.90
46400;DHT22;32104;50.838;4.388;2022-09-09T04:04:24;16.40;99.90
46400;DHT22;32104;50.838;4.388;2022-09-09T04:06:51;16.30;99.90
46400;DHT22;32104;50.838;4.388;2022-09-09T04:09:17;16.20;99.90
46400;DHT22;32104;50.838;4.388;2022-09-09T04:11:43;16.30;99.90
46400;DHT22;32104;50.838;4.388;2022-09-09T04:14:09;16.40;99.90
46400;DHT22;32104;50.838;4.388;2022-09-09T04:16:36;16.40;99.90
46400;DHT22;32104;50.838;4.388;2022-09-09T04:19:04;16.50;99.90
46400;DHT22;32104;50.838;4.388;2022-09-09T04:21:31;16.50;99.90
46400;DHT22;32104;50.838;4.388;2022-09-09T04:23:57;16.50;99.90
46400;DHT22;32104;50.838;4.388;2022-09-09T04:26:22;16.50;99.90
46400;DHT22;32104;50.838;4.388;2022-09-09T04:28:49;16.40;99.90
46400;DHT22;32104;50.838;4.388;2022-09-09T04:31:18;16.40;99.90
46400;DHT22;32104;50.838;4.388;2022-09-09T04:33:46;16.40;99.90
46400;DHT22;32104;50.838;4.388;2022-09-09T04:36:12;16.40;99.90
46400;DHT22;32104;50.838;4.388;2022-09-09T04:38:38;16.20;99.90
46400;DHT22;32104;50.838;4.388;2022-09-09T04:41:05;16.20;99.90
46400;DHT22;32104;50.838;4.388;2022-09-09T04:43:31;16.30;99.90
46400;DHT22;32104;50.838;4.388;2022-09-09T04:45:57;16.40;99.90
46400;DHT22;32104;50.838;4.388;2022-09-09T04:48:26;16.30;99.90
46400;DHT22;32104;50.838;4.388;2022-09-09T04:51:01;16.10;99.90
46400;DHT22;32104;50.838;4.388;2022-09-09T04:53:30;16.10;99.90
46400;DHT22;32104;50.838;4.388;2022-09-09T04:56:04;16.30;99.90
46400;DHT22;32104;50.838;4.388;2022-09-09T04:58:31;16.20;99.90
46400;DHT22;32104;50.838;4.388;2022-09-09T05:01:17;16.30;99.90
46400;DHT22;32104;50.838;4.388;2022-09-09T05:03:45;16.20;99.90
46400;DHT22;32104;50.838;4.388;2022-09-09T05:06:13;16.10;99.90
46400;DHT22;32104;50.838;4.388;2022-09-09T05:08:42;16.00;99.90
46400;DHT22;32104;50.838;4.388;2022-09-09T05:13:43;16.20;99.90
46400;DHT22;32104;50.838;4.388;2022-09-09T05:16:09;16.20;99.90
46400;DHT22;32104;50.838;4.388;2022-09-09T05:18:40;16.20;99.90
46400;DHT22;32104;50.838;4.388;2022-09-09T05:21:11;16.30;99.90
46400;DHT22;32104;50.838;4.388;2022-09-09T05:23:37;16.30;99.90
46400;DHT22;32104;50.838;4.388;2022-09-09T05:26:06;16.40;99.90
46400;DHT22;32104;50.838;4.388;2022-09-09T05:28:34;16.40;99.90
46400;DHT22;32104;50.838;4.388;2022-09-09T05:31:06;16.50;99.90
46400;DHT22;32104;50.838;4.388;2022-09-09T05:33:37;16.50;99.90
46400;DHT22;32104;50.838;4.388;2022-09-09T05:36:16;16.50;99.90
46400;DHT22;32104;50.838;4.388;2022-09-09T05:38:47;16.70;99.90
46400;DHT22;32104;50.838;4.388;2022-09-09T05:41:15;16.70;99.90
46400;DHT22;32104;50.838;4.388;2022-09-09T05:43:43;16.70;99.90
46400;DHT22;32104;50.838;4.388;2022-09-09T05:46:12;16.70;99.90
46400;DHT22;32104;50.838;4.388;2022-09-09T05:48:42;16.70;99.90
46400;DHT22;32104;50.838;4.388;2022-09-09T05:51:11;16.70;99.90
46400;DHT22;32104;50.838;4.388;2022-09-09T05:53:43;16.60;99.90
46400;DHT22;32104;50.838;4.388;2022-09-09T05:56:12;16.60;99.90
46400;DHT22;32104;50.838;4.388;2022-09-09T05:58:40;16.60;99.90
46400;DHT22;32104;50.838;4.388;2022-09-09T06:01:11;16.60;99.90
46400;DHT22;32104;50.838;4.388;2022-09-09T06:03:40;16.60;99.90
46400;DHT22;32104;50.838;4.388;2022-09-09T06:06:08;16.60;99.90
46400;DHT22;32104;50.838;4.388;2022-09-09T06:08:35;16.60;99.90
46400;DHT22;32104;50.838;4.388;2022-09-09T06:11:07;16.60;99.90
46400;DHT22;32104;50.838;4.388;2022-09-09T06:13:33;16.70;99.90
46400;DHT22;32104;50.838;4.388;2022-09-09T06:15:59;16.80;99.90
46400;DHT22;32104;50.838;4.388;2022-09-09T06:18:26;16.90;99.90
46400;DHT22;32104;50.838;4.388;2022-09-09T06:21:00;16.90;99.90
46400;DHT22;32104;50.838;4.388;2022-09-09T06:23:27;17.10;99.90
46400;DHT22;32104;50.838;4.388;2022-09-09T06:26:31;17.00;99.90
46400;DHT22;32104;50.838;4.388;2022-09-09T06:29:00;16.90;99.90
46400;DHT22;32104;50.838;4.388;2022-09-09T06:31:35;17.00;99.90
46400;DHT22;32104;50.838;4.388;2022-09-09T06:34:05;17.00;99.90
46400;DHT22;32104;50.838;4.388;2022-09-09T06:36:40;17.00;99.90
46400;DHT22;32104;50.838;4.388;2022-09-09T06:39:07;17.10;99.90
46400;DHT22;32104;50.838;4.388;2022-09-09T06:41:35;17.20;99.90
46400;DHT22;32104;50.838;4.388;2022-09-09T06:44:03;17.10;99.90
46400;DHT22;32104;50.838;4.388;2022-09-09T06:51:37;17.20;99.90
46400;DHT22;32104;50.838;4.388;2022-09-09T06:54:17;17.10;99.90
46400;DHT22;32104;50.838;4.388;2022-09-09T06:56:44;17.20;99.90
46400;DHT22;32104;50.838;4.388;2022-09-09T07:02:28;17.30;99.90
46400;DHT22;32104;50.838;4.388;2022-09-09T07:05:01;17.30;99.90
46400;DHT22;32104;50.838;4.388;2022-09-09T07:07:27;17.40;99.90
46400;DHT22;32104;50.838;4.388;2022-09-09T07:10:08;17.50;99.90
46400;DHT22;32104;50.838;4.388;2022-09-09T07:12:38;17.50;99.90
46400;DHT22;32104;50.838;4.388;2022-09-09T07:15:06;17.50;99.90
46400;DHT22;32104;50.838;4.388;2022-09-09T07:17:35;17.60;99.90
46400;DHT22;32104;50.838;4.388;2022-09-09T07:20:09;17.50;99.90
46400;DHT22;32104;50.838;4.388;2022-09-09T07:22:47;17.60;99.90
46400;DHT22;32104;50.838;4.388;2022-09-09T07:32:16;17.60;99.90
46400;DHT22;32104;50.838;4.388;2022-09-09T07:37:25;17.50;99.90
46400;DHT22;32104;50.838;4.388;2022-09-09T07:39:51;17.40;99.90
46400;DHT22;32104;50.838;4.388;2022-09-09T07:42:17;17.40;99.90
46400;DHT22;32104;50.838;4.388;2022-09-09T07:45:07;17.40;99.90
46400;DHT22;32104;50.838;4.388;2022-09-09T07:52:45;17.20;99.90
46400;DHT22;32104;50.838;4.388;2022-09-09T07:55:24;17.10;99.90
46400;DHT22;32104;50.838;4.388;2022-09-09T07:57:52;17.10;99.90
46400;DHT22;32104;50.838;4.388;2022-09-09T08:00:23;17.20;99.90
46400;DHT22;32104;50.838;4.388;2022-09-09T08:02:51;17.30;99.90
46400;DHT22;32104;50.838;4.388;2022-09-09T08:05:19;17.40;99.90
46400;DHT22;32104;50.838;4.388;2022-09-09T08:07:52;17.60;99.90
46400;DHT22;32104;50.838;4.388;2022-09-09T08:10:19;17.70;99.90
46400;DHT22;32104;50.838;4.388;2022-09-09T08:12:46;17.80;99.90
46400;DHT22;32104;50.838;4.388;2022-09-09T08:15:18;17.90;99.90
46400;DHT22;32104;50.838;4.388;2022-09-09T08:17:49;18.20;99.90
46400;DHT22;32104;50.838;4.388;2022-09-09T08:21:21;18.20;99.90
46400;DHT22;32104;50.838;4.388;2022-09-09T08:24:08;18.20;99.90
46400;DHT22;32104;50.838;4.388;2022-09-09T08:27:03;18.10;99.90
46400;DHT22;32104;50.838;4.388;2022-09-09T08:29:40;18.20;99.90
46400;DHT22;32104;50.838;4.388;2022-09-09T08:32:06;18.20;99.90
46400;DHT22;32104;50.838;4.388;2022-09-09T08:34:33;18.10;99.90
46400;DHT22;32104;50.838;4.388;2022-09-09T08:36:59;18.10;99.90
46400;DHT22;32104;50.838;4.388;2022-09-09T08:39:28;18.00;99.90
46400;DHT22;32104;50.838;4.388;2022-09-09T08:58:21;17.60;99.90
46400;DHT22;32104;50.838;4.388;2022-09-09T09:12:55;17.70;99.90
46400;DHT22;32104;50.838;4.388;2022-09-09T09:15:26;17.70;99.90
46400;DHT22;32104;50.838;4.388;2022-09-09T09:17:53;17.60;99.90
46400;DHT22;32104;50.838;4.388;2022-09-09T09:23:59;17.60;99.90
46400;DHT22;32104;50.838;4.388;2022-09-09T09:34:14;17.60;99.90
46400;DHT22;32104;50.838;4.388;2022-09-09T09:36:54;17.60;99.90
46400;DHT22;32104;50.838;4.388;2022-09-09T09:39:45;17.40;99.90
46400;DHT22;32104;50.838;4.388;2022-09-09T10:05:45;17.80;99.90
46400;DHT22;32104;50.838;4.388;2022-09-09T10:08:16;17.80;99.90
46400;DHT22;32104;50.838;4.388;2022-09-09T10:23:43;17.70;99.90
46400;DHT22;32104;50.838;4.388;2022-09-09T10:30:22;17.70;99.90
46400;DHT22;32104;50.838;4.388;2022-09-09T10:36:18;17.80;99.90
46400;DHT22;32104;50.838;4.388;2022-09-09T10:38:52;18.20;99.90
46400;DHT22;32104;50.838;4.388;2022-09-09T10:56:17;18.80;99.90
46400;DHT22;32104;50.838;4.388;2022-09-09T11:05:05;19.20;99.90
46400;DHT22;32104;50.838;4.388;2022-09-09T11:08:05;19.20;99.90
46400;DHT22;32104;50.838;4.388;2022-09-09T11:10:51;19.30;99.90
46400;DHT22;32104;50.838;4.388;2022-09-09T11:19:34;19.10;99.90
46400;DHT22;32104;50.838;4.388;2022-09-09T11:22:31;19.10;99.90
46400;DHT22;32104;50.838;4.388;2022-09-09T11:25:21;19.10;99.90
46400;DHT22;32104;50.838;4.388;2022-09-09T11:28:14;19.20;99.90
46400;DHT22;32104;50.838;4.388;2022-09-09T11:44:29;19.00;99.90
46400;DHT22;32104;50.838;4.388;2022-09-09T11:50:56;18.90;99.90
46400;DHT22;32104;50.838;4.388;2022-09-09T11:58:44;19.10;99.90
46400;DHT22;32104;50.838;4.388;2022-09-09T12:02:12;19.10;99.90
46400;DHT22;32104;50.838;4.388;2022-09-09T12:04:53;19.20;99.90
46400;DHT22;32104;50.838;4.388;2022-09-09T12:13:52;19.20;99.90
46400;DHT22;32104;50.838;4.388;2022-09-09T12:16:45;19.20;99.90
46400;DHT22;32104;50.838;4.388;2022-09-09T12:19:24;19.30;99.90
46400;DHT22;32104;50.838;4.388;2022-09-09T12:25:00;19.10;99.90
46400;DHT22;32104;50.838;4.388;2022-09-09T12:28:05;19.10;99.90
46400;DHT22;32104;50.838;4.388;2022-09-09T12:33:45;19.10;99.90
46400;DHT22;32104;50.838;4.388;2022-09-09T12:36:14;19.20;99.90
46400;DHT22;32104;50.838;4.388;2022-09-09T12:38:48;19.40;99.90
46400;DHT22;32104;50.838;4.388;2022-09-09T12:41:27;19.70;99.90
46400;DHT22;32104;50.838;4.388;2022-09-09T12:44:09;19.80;99.90
46400;DHT22;32104;50.838;4.388;2022-09-09T12:46:44;20.00;99.90
46400;DHT22;32104;50.838;4.388;2022-09-09T12:49:33;20.10;99.90
46400;DHT22;32104;50.838;4.388;2022-09-09T12:54:45;20.20;99.90
46400;DHT22;32104;50.838;4.388;2022-09-09T12:57:17;20.30;99.90
46400;DHT22;32104;50.838;4.388;2022-09-09T12:59:44;20.50;99.90
46400;DHT22;32104;50.838;4.388;2022-09-09T13:02:23;20.40;99.90
46400;DHT22;32104;50.838;4.388;2022-09-09T13:05:08;20.50;99.90
46400;DHT22;32104;50.838;4.388;2022-09-09T13:07:39;20.50;99.90
46400;DHT22;32104;50.838;4.388;2022-09-09T13:10:05;20.50;99.90
46400;DHT22;32104;50.838;4.388;2022-09-09T13:12:32;20.30;99.90
46400;DHT22;32104;50.838;4.388;2022-09-09T13:15:04;20.20;99.90
46400;DHT22;32104;50.838;4.388;2022-09-09T13:17:30;20.20;99.90
46400;DHT22;32104;50.838;4.388;2022-09-09T13:19:57;20.30;99.90
46400;DHT22;32104;50.838;4.388;2022-09-09T13:22:37;20.40;99.90
46400;DHT22;32104;50.838;4.388;2022-09-09T13:25:18;20.40;99.90
46400;DHT22;32104;50.838;4.388;2022-09-09T13:28:05;20.40;99.90
46400;DHT22;32104;50.838;4.388;2022-09-09T13:30:38;20.40;99.90
46400;DHT22;32104;50.838;4.388;2022-09-09T13:35:49;20.20;99.90
46400;DHT22;32104;50.838;4.388;2022-09-09T13:38:18;20.40;99.90
46400;DHT22;32104;50.838;4.388;2022-09-09T13:41:03;20.60;99.90
46400;DHT22;32104;50.838;4.388;2022-09-09T13:43:51;20.60;99.90
46400;DHT22;32104;50.838;4.388;2022-09-09T13:46:59;20.50;99.90
46400;DHT22;32104;50.838;4.388;2022-09-09T13:49:29;20.70;99.90
46400;DHT22;32104;50.838;4.388;2022-09-09T13:52:15;20.70;99.90
46400;DHT22;32104;50.838;4.388;2022-09-09T13:54:43;20.60;99.90
46400;DHT22;32104;50.838;4.388;2022-09-09T13:57:25;20.60;99.90
46400;DHT22;32104;50.838;4.388;2022-09-09T13:59:52;20.60;99.90
46400;DHT22;32104;50.838;4.388;2022-09-09T14:02:21;20.80;99.90
46400;DHT22;32104;50.838;4.388;2022-09-09T14:04:48;20.80;99.90
46400;DHT22;32104;50.838;4.388;2022-09-09T14:07:18;20.90;99.90
46400;DHT22;32104;50.838;4.388;2022-09-09T14:09:46;20.90;99.90
46400;DHT22;32104;50.838;4.388;2022-09-09T14:12:31;20.90;99.90
46400;DHT22;32104;50.838;4.388;2022-09-09T14:15:06;20.90;99.90
46400;DHT22;32104;50.838;4.388;2022-09-09T14:17:34;20.80;99.90
46400;DHT22;32104;50.838;4.388;2022-09-09T14:20:01;20.90;99.90
46400;DHT22;32104;50.838;4.388;2022-09-09T14:22:29;20.70;99.90
46400;DHT22;32104;50.838;4.388;2022-09-09T14:24:56;20.50;99.90
46400;DHT22;32104;50.838;4.388;2022-09-09T14:27:27;20.40;99.90
46400;DHT22;32104;50.838;4.388;2022-09-09T14:29:52;20.30;99.90
46400;DHT22;32104;50.838;4.388;2022-09-09T14:32:20;20.10;99.90
46400;DHT22;32104;50.838;4.388;2022-09-09T14:34:48;20.20;99.90
46400;DHT22;32104;50.838;4.388;2022-09-09T14:37:17;20.40;99.90
46400;DHT22;32104;50.838;4.388;2022-09-09T14:39:43;20.50;99.90
46400;DHT22;32104;50.838;4.388;2022-09-09T14:42:15;20.70;99.90
46400;DHT22;32104;50.838;4.388;2022-09-09T14:44:42;20.80;99.90
46400;DHT22;32104;50.838;4.388;2022-09-09T14:47:08;20.80;99.90
46400;DHT22;32104;50.838;4.388;2022-09-09T14:49:35;20.80;99.90
46400;DHT22;32104;50.838;4.388;2022-09-09T14:52:04;20.80;99.90
46400;DHT22;32104;50.838;4.388;2022-09-09T14:54:33;20.70;99.90
46400;DHT22;32104;50.838;4.388;2022-09-09T14:56:59;20.90;99.90
46400;DHT22;32104;50.838;4.388;2022-09-09T14:59:25;21.00;99.90
46400;DHT22;32104;50.838;4.388;2022-09-09T15:01:56;20.90;99.90
46400;DHT22;32104;50.838;4.388;2022-09-09T15:04:25;21.00;99.90
46400;DHT22;32104;50.838;4.388;2022-09-09T15:06:51;20.90;99.90
46400;DHT22;32104;50.838;4.388;2022-09-09T15:09:19;20.80;99.90
46400;DHT22;32104;50.838;4.388;2022-09-09T15:11:48;20.80;99.90
46400;DHT22;32104;50.838;4.388;2022-09-09T15:14:39;20.80;99.90
46400;DHT22;32104;50.838;4.388;2022-09-09T15:17:08;20.70;99.90
46400;DHT22;32104;50.838;4.388;2022-09-09T15:22:50;20.50;99.90
46400;DHT22;32104;50.838;4.388;2022-09-09T15:25:18;20.70;99.90
46400;DHT22;32104;50.838;4.388;2022-09-09T15:27:51;20.80;99.90
46400;DHT22;32104;50.838;4.388;2022-09-09T15:30:21;20.80;99.90
46400;DHT22;32104;50.838;4.388;2022-09-09T15:32:50;20.80;99.90
46400;DHT22;32104;50.838;4.388;2022-09-09T15:35:48;20.70;99.90
46400;DHT22;32104;50.838;4.388;2022-09-09T15:38:15;20.50;99.90
46400;DHT22;32104;50.838;4.388;2022-09-09T15:41:10;20.50;99.90
46400;DHT22;32104;50.838;4.388;2022-09-09T15:44:06;20.30;99.90
46400;DHT22;32104;50.838;4.388;2022-09-09T15:49:33;20.40;99.90
46400;DHT22;32104;50.838;4.388;2022-09-09T15:52:02;20.40;99.90
46400;DHT22;32104;50.838;4.388;2022-09-09T15:54:37;20.40;99.90
46400;DHT22;32104;50.838;4.388;2022-09-09T15:57:22;20.40;99.90
46400;DHT22;32104;50.838;4.388;2022-09-09T15:59:57;20.60;99.90
46400;DHT22;32104;50.838;4.388;2022-09-09T16:02:25;20.60;99.90
46400;DHT22;32104;50.838;4.388;2022-09-09T16:05:14;20.70;99.90
46400;DHT22;32104;50.838;4.388;2022-09-09T16:07:43;20.60;99.90
46400;DHT22;32104;50.838;4.388;2022-09-09T16:10:10;20.60;99.90
46400;DHT22;32104;50.838;4.388;2022-09-09T16:12:39;20.60;99.90
46400;DHT22;32104;50.838;4.388;2022-09-09T16:15:26;20.50;99.90
46400;DHT22;32104;50.838;4.388;2022-09-09T16:18:00;20.50;99.90
46400;DHT22;32104;50.838;4.388;2022-09-09T16:20:28;20.30;99.90
46400;DHT22;32104;50.838;4.388;2022-09-09T16:22:54;20.20;99.90
46400;DHT22;32104;50.838;4.388;2022-09-09T16:25:22;20.30;99.90
46400;DHT22;32104;50.838;4.388;2022-09-09T16:27:58;20.30;99.90
46400;DHT22;32104;50.838;4.388;2022-09-09T16:30:43;20.20;99.90
46400;DHT22;32104;50.838;4.388;2022-09-09T16:33:30;20.20;99.90
46400;DHT22;32104;50.838;4.388;2022-09-09T16:36:19;20.10;99.90
46400;DHT22;32104;50.838;4.388;2022-09-09T16:38:46;19.80;99.90
46400;DHT22;32104;50.838;4.388;2022-09-09T16:41:16;19.60;99.90
46400;DHT22;32104;50.838;4.388;2022-09-09T16:43:42;19.60;99.90
46400;DHT22;32104;50.838;4.388;2022-09-09T16:46:18;19.30;99.90
46400;DHT22;32104;50.838;4.388;2022-09-09T16:48:48;19.50;99.90
46400;DHT22;32104;50.838;4.388;2022-09-09T16:51:39;19.50;99.90
46400;DHT22;32104;50.838;4.388;2022-09-09T16:54:09;19.50;99.90
46400;DHT22;32104;50.838;4.388;2022-09-09T16:56:40;19.60;99.90
46400;DHT22;32104;50.838;4.388;2022-09-09T16:59:19;19.60;99.90
46400;DHT22;32104;50.838;4.388;2022-09-09T17:01:51;19.70;99.90
46400;DHT22;32104;50.838;4.388;2022-09-09T17:04:35;19.60;99.90
46400;DHT22;32104;50.838;4.388;2022-09-09T17:07:09;19.70;99.90
46400;DHT22;32104;50.838;4.388;2022-09-09T17:09:35;19.70;99.90
46400;DHT22;32104;50.838;4.388;2022-09-09T17:12:23;19.70;99.90
46400;DHT22;32104;50.838;4.388;2022-09-09T17:14:50;19.60;99.90
46400;DHT22;32104;50.838;4.388;2022-09-09T17:17:27;19.60;99.90
46400;DHT22;32104;50.838;4.388;2022-09-09T17:19:56;19.50;99.90
46400;DHT22;32104;50.838;4.388;2022-09-09T17:22:22;19.40;99.90
46400;DHT22;32104;50.838;4.388;2022-09-09T17:24:49;19.40;99.90
46400;DHT22;32104;50.838;4.388;2022-09-09T17:27:17;19.30;99.90
46400;DHT22;32104;50.838;4.388;2022-09-09T17:29:43;19.20;99.90
46400;DHT22;32104;50.838;4.388;2022-09-09T17:32:10;19.20;99.90
46400;DHT22;32104;50.838;4.388;2022-09-09T17:34:51;19.10;99.90
46400;DHT22;32104;50.838;4.388;2022-09-09T17:37:19;19.10;99.90
46400;DHT22;32104;50.838;4.388;2022-09-09T17:39:47;19.10;99.90
46400;DHT22;32104;50.838;4.388;2022-09-09T17:42:16;19.10;99.90
46400;DHT22;32104;50.838;4.388;2022-09-09T17:44:42;19.00;99.90
46400;DHT22;32104;50.838;4.388;2022-09-09T17:47:07;19.00;99.90
46400;DHT22;32104;50.838;4.388;2022-09-09T17:49:39;18.80;99.90
46400;DHT22;32104;50.838;4.388;2022-09-09T17:52:05;18.70;99.90
46400;DHT22;32104;50.838;4.388;2022-09-09T17:54:35;18.70;99.90
46400;DHT22;32104;50.838;4.388;2022-09-09T17:57:04;18.50;99.90
46400;DHT22;32104;50.838;4.388;2022-09-09T18:04:56;18.50;99.90
46400;DHT22;32104;50.838;4.388;2022-09-09T18:56:48;18.10;99.90
46400;DHT22;32104;50.838;4.388;2022-09-09T18:59:18;18.10;99.90
46400;DHT22;32104;50.838;4.388;2022-09-09T19:01:46;18.20;99.90
46400;DHT22;32104;50.838;4.388;2022-09-09T19:04:12;17.90;99.90
46400;DHT22;32104;50.838;4.388;2022-09-09T19:06:42;18.10;99.90
46400;DHT22;32104;50.838;4.388;2022-09-09T19:09:13;18.10;99.90
46400;DHT22;32104;50.838;4.388;2022-09-09T19:11:43;18.10;99.90
46400;DHT22;32104;50.838;4.388;2022-09-09T19:14:16;17.80;99.90
46400;DHT22;32104;50.838;4.388;2022-09-09T19:22:02;18.00;99.90
46400;DHT22;32104;50.838;4.388;2022-09-09T19:27:16;17.90;99.90
46400;DHT22;32104;50.838;4.388;2022-09-09T19:29:45;18.00;99.90
46400;DHT22;32104;50.838;4.388;2022-09-09T19:32:20;17.80;99.90
46400;DHT22;32104;50.838;4.388;2022-09-09T19:43:48;17.90;99.90
46400;DHT22;32104;50.838;4.388;2022-09-09T19:46:46;17.90;99.90
46400;DHT22;32104;50.838;4.388;2022-09-09T19:49:31;17.90;99.90
46400;DHT22;32104;50.838;4.388;2022-09-09T19:55:29;17.80;99.90
46400;DHT22;32104;50.838;4.388;2022-09-09T20:03:28;17.40;99.90
46400;DHT22;32104;50.838;4.388;2022-09-09T20:09:10;17.20;99.90
46400;DHT22;32104;50.838;4.388;2022-09-09T20:14:26;17.40;99.90
46400;DHT22;32104;50.838;4.388;2022-09-09T20:32:04;17.40;99.90
46400;DHT22;32104;50.838;4.388;2022-09-09T20:48:12;17.10;99.90
46400;DHT22;32104;50.838;4.388;2022-09-09T20:51:04;17.10;99.90
46400;DHT22;32104;50.838;4.388;2022-09-09T20:53:43;17.20;99.90
46400;DHT22;32104;50.838;4.388;2022-09-09T20:56:12;17.30;99.90
46400;DHT22;32104;50.838;4.388;2022-09-09T20:58:41;17.20;99.90
46400;DHT22;32104;50.838;4.388;2022-09-09T21:01:14;17.20;99.90
46400;DHT22;32104;50.838;4.388;2022-09-09T21:03:40;17.20;99.90
46400;DHT22;32104;50.838;4.388;2022-09-09T21:06:07;17.20;99.90
46400;DHT22;32104;50.838;4.388;2022-09-09T21:08:34;17.10;99.90
46400;DHT22;32104;50.838;4.388;2022-09-09T21:11:01;17.30;99.90
46400;DHT22;32104;50.838;4.388;2022-09-09T21:13:28;17.30;99.90
46400;DHT22;32104;50.838;4.388;2022-09-09T21:15:54;17.40;99.90
46400;DHT22;32104;50.838;4.388;2022-09-09T21:18:20;17.30;99.90
46400;DHT22;32104;50.838;4.388;2022-09-09T21:20:47;17.40;99.90
46400;DHT22;32104;50.838;4.388;2022-09-09T21:23:16;17.20;99.90
46400;DHT22;32104;50.838;4.388;2022-09-09T21:25:44;17.20;99.90
46400;DHT22;32104;50.838;4.388;2022-09-09T21:28:10;17.30;99.90
46400;DHT22;32104;50.838;4.388;2022-09-09T21:30:37;17.10;99.90
46400;DHT22;32104;50.838;4.388;2022-09-09T21:33:07;17.20;99.90
46400;DHT22;32104;50.838;4.388;2022-09-09T21:35:35;17.20;99.90
46400;DHT22;32104;50.838;4.388;2022-09-09T21:38:01;17.20;99.90
46400;DHT22;32104;50.838;4.388;2022-09-09T21:40:28;17.10;99.90
46400;DHT22;32104;50.838;4.388;2022-09-09T21:42:54;17.20;99.90
46400;DHT22;32104;50.838;4.388;2022-09-09T21:45:20;17.20;99.90
46400;DHT22;32104;50.838;4.388;2022-09-09T21:47:46;17.20;99.90